This is the latest recevied weather packets stored in our database for station/object OZ1IEP-5. If no packets are shown the sender has not sent any weather packets the latest 10 day(s).
| Time | Temp. | Humidity | Pressure | Rain* | Wind** | Luminosity | Snow |
|---|---|---|---|---|---|---|---|
| 1777992606 | 11.67° C | 52% | 1009.8 hPa | 0 mm | - | 91 W/m² | - |
| 1777992006 | 12.22° C | 51% | 1009.7 hPa | 0 mm | - | 570 W/m² | - |
| 1777991409 | 12.22° C | 51% | 1009.7 hPa | 0 mm | - | 591 W/m² | - |
| 1777990805 | 12.22° C | 46% | 1009.8 hPa | 0 mm | - | 610 W/m² | - |
| 1777989608 | 12.78° C | 45% | 1009.8 hPa | 0 mm | - | 654 W/m² | - |
| 1777989006 | 12.78° C | 46% | 1009.8 hPa | 0 mm | - | 673 W/m² | - |
| 1777988406 | 12.78° C | 50% | 1009.8 hPa | 0 mm | - | 687 W/m² | - |
| 1777987808 | 12.22° C | 52% | 1009.8 hPa | 0 mm | - | 707 W/m² | - |
| 1777987206 | 12.22° C | 59% | 1009.8 hPa | 0 mm | - | 719 W/m² | - |
| 1777986605 | 12.22° C | 58% | 1009.8 hPa | 0 mm | - | 737 W/m² | - |
| 1777986007 | 12.22° C | 63% | 1009.9 hPa | 0 mm | - | 742 W/m² | - |
| 1777985406 | 12.22° C | 64% | 1009.9 hPa | 0 mm | - | 756 W/m² | - |
| 1777984806 | 12.22° C | 71% | 1009.9 hPa | 0 mm | - | 766 W/m² | - |
| 1777984208 | 11.67° C | 74% | 1009.9 hPa | 0 mm | - | 773 W/m² | - |
| 1777983606 | 11.67° C | 73% | 1009.9 hPa | 0 mm | - | 780 W/m² | - |
| 1777983005 | 11.67° C | 73% | 1009.9 hPa | 0 mm | - | 791 W/m² | - |
| 1777982408 | 11.67° C | 72% | 1009.9 hPa | 0 mm | - | 793 W/m² | - |
| 1777981805 | 11.67° C | 72% | 1009.9 hPa | 0 mm | - | 800 W/m² | - |
| 1777981206 | 11.67° C | 72% | 1009.9 hPa | 0 mm | - | 803 W/m² | - |
| 1777980608 | 11.67° C | 73% | 1009.9 hPa | 0 mm | - | 809 W/m² | - |
| 1777980005 | 11.67° C | 71% | 1009.9 hPa | 0 mm | - | 812 W/m² | - |
| 1777979405 | 11.67° C | 74% | 1009.9 hPa | 0 mm | - | 812 W/m² | - |
| 1777978808 | 11.67° C | 76% | 1009.9 hPa | 0 mm | - | 810 W/m² | - |
| 1777978205 | 11.67° C | 76% | 1010 hPa | 0 mm | - | 812 W/m² | - |
| 1777977606 | 11.11° C | 75% | 1010 hPa | 0 mm | - | 816 W/m² | - |
* Rain latest hour (hover to see other rain measurements)
** Current wind speed in m/s (hover to see current wind gust speed)